sensor_id;sensor_type;location;lat;lon;timestamp;temperature;humidity
7240;DHT22;3661;53.288;10.458;2023-06-10T00:01:56;15.30;99.90
7240;DHT22;3661;53.288;10.458;2023-06-10T00:04:30;15.20;99.90
7240;DHT22;3661;53.288;10.458;2023-06-10T00:07:03;15.10;99.90
7240;DHT22;3661;53.288;10.458;2023-06-10T00:09:39;15.10;99.90
7240;DHT22;3661;53.288;10.458;2023-06-10T00:14:52;15.00;99.90
7240;DHT22;3661;53.288;10.458;2023-06-10T00:17:30;15.00;99.90
7240;DHT22;3661;53.288;10.458;2023-06-10T00:20:08;14.90;99.90
7240;DHT22;3661;53.288;10.458;2023-06-10T00:22:42;14.90;99.90
7240;DHT22;3661;53.288;10.458;2023-06-10T00:25:16;14.90;99.90
7240;DHT22;3661;53.288;10.458;2023-06-10T00:27:53;14.80;99.90
7240;DHT22;3661;53.288;10.458;2023-06-10T00:30:32;14.80;99.90
7240;DHT22;3661;53.288;10.458;2023-06-10T00:33:06;14.70;99.90
7240;DHT22;3661;53.288;10.458;2023-06-10T00:35:39;14.70;99.90
7240;DHT22;3661;53.288;10.458;2023-06-10T00:38:13;14.60;99.90
7240;DHT22;3661;53.288;10.458;2023-06-10T00:40:49;14.60;99.90
7240;DHT22;3661;53.288;10.458;2023-06-10T00:43:38;14.60;99.90
7240;DHT22;3661;53.288;10.458;2023-06-10T00:46:13;14.60;99.90
7240;DHT22;3661;53.288;10.458;2023-06-10T00:48:47;14.60;99.90
7240;DHT22;3661;53.288;10.458;2023-06-10T00:51:22;14.50;99.90
7240;DHT22;3661;53.288;10.458;2023-06-10T00:53:58;14.50;99.90
7240;DHT22;3661;53.288;10.458;2023-06-10T00:56:33;14.50;99.90
7240;DHT22;3661;53.288;10.458;2023-06-10T00:59:06;14.50;99.90
7240;DHT22;3661;53.288;10.458;2023-06-10T01:01:43;14.50;99.90
7240;DHT22;3661;53.288;10.458;2023-06-10T01:04:21;14.50;99.90
7240;DHT22;3661;53.288;10.458;2023-06-10T01:07:25;14.50;99.90
7240;DHT22;3661;53.288;10.458;2023-06-10T01:12:57;14.50;99.90
7240;DHT22;3661;53.288;10.458;2023-06-10T01:15:34;14.40;99.90
7240;DHT22;3661;53.288;10.458;2023-06-10T01:18:08;14.40;99.90
7240;DHT22;3661;53.288;10.458;2023-06-10T01:20:59;14.40;99.90
7240;DHT22;3661;53.288;10.458;2023-06-10T01:47:50;14.40;99.90
7240;DHT22;3661;53.288;10.458;2023-06-10T01:50:23;14.40;99.90
7240;DHT22;3661;53.288;10.458;2023-06-10T01:52:59;14.40;99.90
7240;DHT22;3661;53.288;10.458;2023-06-10T01:55:35;14.30;99.90
7240;DHT22;3661;53.288;10.458;2023-06-10T01:58:07;14.30;99.90
7240;DHT22;3661;53.288;10.458;2023-06-10T02:00:40;14.30;99.90
7240;DHT22;3661;53.288;10.458;2023-06-10T02:03:17;14.30;99.90
7240;DHT22;3661;53.288;10.458;2023-06-10T02:06:04;14.30;99.90
7240;DHT22;3661;53.288;10.458;2023-06-10T02:08:38;14.30;99.90
7240;DHT22;3661;53.288;10.458;2023-06-10T02:11:12;14.30;99.90
7240;DHT22;3661;53.288;10.458;2023-06-10T02:13:46;14.20;99.90
7240;DHT22;3661;53.288;10.458;2023-06-10T02:16:28;14.20;99.90
7240;DHT22;3661;53.288;10.458;2023-06-10T02:19:01;14.20;99.90
7240;DHT22;3661;53.288;10.458;2023-06-10T02:21:33;14.20;99.90
7240;DHT22;3661;53.288;10.458;2023-06-10T02:24:06;14.10;99.90
7240;DHT22;3661;53.288;10.458;2023-06-10T02:26:39;14.10;99.90
7240;DHT22;3661;53.288;10.458;2023-06-10T02:29:11;14.10;99.90
7240;DHT22;3661;53.288;10.458;2023-06-10T02:31:43;14.00;99.90
7240;DHT22;3661;53.288;10.458;2023-06-10T02:34:17;14.10;99.90
7240;DHT22;3661;53.288;10.458;2023-06-10T02:36:49;14.00;99.90
7240;DHT22;3661;53.288;10.458;2023-06-10T02:39:22;14.00;99.90
7240;DHT22;3661;53.288;10.458;2023-06-10T02:41:56;14.00;99.90
7240;DHT22;3661;53.288;10.458;2023-06-10T02:44:28;14.00;99.90
7240;DHT22;3661;53.288;10.458;2023-06-10T02:47:00;14.00;99.90
7240;DHT22;3661;53.288;10.458;2023-06-10T02:49:34;14.00;99.90
7240;DHT22;3661;53.288;10.458;2023-06-10T02:52:06;14.00;99.90
7240;DHT22;3661;53.288;10.458;2023-06-10T02:54:43;13.90;99.90
7240;DHT22;3661;53.288;10.458;2023-06-10T02:57:16;13.90;99.90
7240;DHT22;3661;53.288;10.458;2023-06-10T02:59:48;13.90;99.90
7240;DHT22;3661;53.288;10.458;2023-06-10T03:02:21;13.90;99.90
7240;DHT22;3661;53.288;10.458;2023-06-10T03:05:00;13.80;99.90
7240;DHT22;3661;53.288;10.458;2023-06-10T03:07:33;13.80;99.90
7240;DHT22;3661;53.288;10.458;2023-06-10T03:10:06;13.80;99.90
7240;DHT22;3661;53.288;10.458;2023-06-10T03:12:39;13.80;99.90
7240;DHT22;3661;53.288;10.458;2023-06-10T03:15:14;13.80;99.90
7240;DHT22;3661;53.288;10.458;2023-06-10T03:17:46;13.80;99.90
7240;DHT22;3661;53.288;10.458;2023-06-10T03:20:22;13.80;99.90
7240;DHT22;3661;53.288;10.458;2023-06-10T03:22:55;13.70;99.90
7240;DHT22;3661;53.288;10.458;2023-06-10T03:25:28;13.70;99.90
7240;DHT22;3661;53.288;10.458;2023-06-10T03:28:01;13.70;99.90
7240;DHT22;3661;53.288;10.458;2023-06-10T03:30:33;13.70;99.90
7240;DHT22;3661;53.288;10.458;2023-06-10T03:33:05;13.70;99.90
7240;DHT22;3661;53.288;10.458;2023-06-10T03:35:39;13.70;99.90
7240;DHT22;3661;53.288;10.458;2023-06-10T03:38:11;13.70;99.90
7240;DHT22;3661;53.288;10.458;2023-06-10T03:40:43;13.70;99.90
7240;DHT22;3661;53.288;10.458;2023-06-10T03:43:15;13.70;99.90
7240;DHT22;3661;53.288;10.458;2023-06-10T03:45:47;13.60;99.90
7240;DHT22;3661;53.288;10.458;2023-06-10T03:48:21;13.60;99.90
7240;DHT22;3661;53.288;10.458;2023-06-10T03:50:55;13.60;99.90
7240;DHT22;3661;53.288;10.458;2023-06-10T03:53:36;13.60;99.90
7240;DHT22;3661;53.288;10.458;2023-06-10T03:56:08;13.60;99.90
7240;DHT22;3661;53.288;10.458;2023-06-10T03:58:40;13.60;99.90
7240;DHT22;3661;53.288;10.458;2023-06-10T04:01:12;13.60;99.90
7240;DHT22;3661;53.288;10.458;2023-06-10T04:03:44;13.60;99.90
7240;DHT22;3661;53.288;10.458;2023-06-10T04:06:21;13.60;99.90
7240;DHT22;3661;53.288;10.458;2023-06-10T04:08:56;13.60;99.90
7240;DHT22;3661;53.288;10.458;2023-06-10T04:11:28;13.50;99.90
7240;DHT22;3661;53.288;10.458;2023-06-10T04:14:00;13.50;99.90
7240;DHT22;3661;53.288;10.458;2023-06-10T04:16:32;13.60;99.90
7240;DHT22;3661;53.288;10.458;2023-06-10T04:19:04;13.60;99.90
7240;DHT22;3661;53.288;10.458;2023-06-10T04:21:38;13.60;99.90
7240;DHT22;3661;53.288;10.458;2023-06-10T04:24:10;13.60;99.90
7240;DHT22;3661;53.288;10.458;2023-06-10T04:26:42;13.60;99.90
7240;DHT22;3661;53.288;10.458;2023-06-10T04:29:15;13.60;99.90
7240;DHT22;3661;53.288;10.458;2023-06-10T04:31:47;13.60;99.90
7240;DHT22;3661;53.288;10.458;2023-06-10T04:34:19;13.60;99.90
7240;DHT22;3661;53.288;10.458;2023-06-10T04:36:53;13.60;99.90
7240;DHT22;3661;53.288;10.458;2023-06-10T04:39:25;13.70;99.90
7240;DHT22;3661;53.288;10.458;2023-06-10T04:41:57;13.70;99.90
7240;DHT22;3661;53.288;10.458;2023-06-10T04:44:30;13.70;99.90
7240;DHT22;3661;53.288;10.458;2023-06-10T04:47:03;13.70;99.90
7240;DHT22;3661;53.288;10.458;2023-06-10T04:49:38;13.70;99.90
7240;DHT22;3661;53.288;10.458;2023-06-10T04:52:13;13.70;99.90
7240;DHT22;3661;53.288;10.458;2023-06-10T04:54:45;13.70;99.90
7240;DHT22;3661;53.288;10.458;2023-06-10T04:57:17;13.80;99.90
7240;DHT22;3661;53.288;10.458;2023-06-10T04:59:49;13.80;99.90
7240;DHT22;3661;53.288;10.458;2023-06-10T05:02:21;13.80;99.90
7240;DHT22;3661;53.288;10.458;2023-06-10T05:04:53;13.90;99.90
7240;DHT22;3661;53.288;10.458;2023-06-10T05:07:27;13.90;99.90
7240;DHT22;3661;53.288;10.458;2023-06-10T05:09:59;13.90;99.90
7240;DHT22;3661;53.288;10.458;2023-06-10T05:12:32;14.00;99.90
7240;DHT22;3661;53.288;10.458;2023-06-10T05:15:05;14.00;99.90
7240;DHT22;3661;53.288;10.458;2023-06-10T05:17:38;14.10;99.90
7240;DHT22;3661;53.288;10.458;2023-06-10T05:20:10;14.20;99.90
7240;DHT22;3661;53.288;10.458;2023-06-10T05:22:45;14.20;99.90
7240;DHT22;3661;53.288;10.458;2023-06-10T05:25:17;14.30;99.90
7240;DHT22;3661;53.288;10.458;2023-06-10T05:27:50;14.30;99.90
7240;DHT22;3661;53.288;10.458;2023-06-10T05:30:23;14.40;99.90
7240;DHT22;3661;53.288;10.458;2023-06-10T05:32:56;14.50;99.90
7240;DHT22;3661;53.288;10.458;2023-06-10T05:35:28;14.50;99.90
7240;DHT22;3661;53.288;10.458;2023-06-10T05:38:02;14.50;99.90
7240;DHT22;3661;53.288;10.458;2023-06-10T05:40:34;14.60;99.90
7240;DHT22;3661;53.288;10.458;2023-06-10T05:43:06;14.60;99.90
7240;DHT22;3661;53.288;10.458;2023-06-10T05:45:40;14.70;99.90
7240;DHT22;3661;53.288;10.458;2023-06-10T05:48:13;14.70;99.90
7240;DHT22;3661;53.288;10.458;2023-06-10T05:50:45;14.80;99.90
7240;DHT22;3661;53.288;10.458;2023-06-10T05:53:21;14.80;99.90
7240;DHT22;3661;53.288;10.458;2023-06-10T05:55:58;14.90;99.90
7240;DHT22;3661;53.288;10.458;2023-06-10T05:58:30;14.90;99.90
7240;DHT22;3661;53.288;10.458;2023-06-10T06:01:03;14.90;99.90
7240;DHT22;3661;53.288;10.458;2023-06-10T06:03:42;15.00;99.90
7240;DHT22;3661;53.288;10.458;2023-06-10T06:06:16;15.00;99.90
7240;DHT22;3661;53.288;10.458;2023-06-10T06:08:52;15.00;99.90
7240;DHT22;3661;53.288;10.458;2023-06-10T06:11:24;15.00;99.90
7240;DHT22;3661;53.288;10.458;2023-06-10T06:13:57;15.10;99.90
7240;DHT22;3661;53.288;10.458;2023-06-10T06:16:29;15.20;99.90
7240;DHT22;3661;53.288;10.458;2023-06-10T06:19:01;15.20;99.90
7240;DHT22;3661;53.288;10.458;2023-06-10T06:21:33;15.20;99.90
7240;DHT22;3661;53.288;10.458;2023-06-10T06:24:07;15.30;99.90
7240;DHT22;3661;53.288;10.458;2023-06-10T06:26:41;15.30;99.90
7240;DHT22;3661;53.288;10.458;2023-06-10T06:29:13;15.30;99.90
7240;DHT22;3661;53.288;10.458;2023-06-10T06:31:47;15.40;99.90
7240;DHT22;3661;53.288;10.458;2023-06-10T06:34:19;15.40;99.90
7240;DHT22;3661;53.288;10.458;2023-06-10T06:36:51;15.50;99.90
7240;DHT22;3661;53.288;10.458;2023-06-10T06:39:25;15.50;99.90
7240;DHT22;3661;53.288;10.458;2023-06-10T06:41:57;15.50;99.90
7240;DHT22;3661;53.288;10.458;2023-06-10T06:44:29;15.60;99.90
7240;DHT22;3661;53.288;10.458;2023-06-10T06:47:01;15.60;99.90
7240;DHT22;3661;53.288;10.458;2023-06-10T06:49:34;15.70;99.90
7240;DHT22;3661;53.288;10.458;2023-06-10T06:52:06;15.70;99.90
7240;DHT22;3661;53.288;10.458;2023-06-10T06:54:40;15.80;99.90
7240;DHT22;3661;53.288;10.458;2023-06-10T06:57:12;15.80;99.90
7240;DHT22;3661;53.288;10.458;2023-06-10T06:59:47;15.90;99.90
7240;DHT22;3661;53.288;10.458;2023-06-10T07:02:19;15.90;99.90
7240;DHT22;3661;53.288;10.458;2023-06-10T07:04:51;16.00;99.90
7240;DHT22;3661;53.288;10.458;2023-06-10T07:07:26;16.00;99.90
7240;DHT22;3661;53.288;10.458;2023-06-10T07:10:00;16.10;99.90
7240;DHT22;3661;53.288;10.458;2023-06-10T07:12:33;16.20;99.90
7240;DHT22;3661;53.288;10.458;2023-06-10T07:15:06;16.20;99.90
7240;DHT22;3661;53.288;10.458;2023-06-10T07:17:39;16.30;99.90
7240;DHT22;3661;53.288;10.458;2023-06-10T07:20:12;16.40;99.90
7240;DHT22;3661;53.288;10.458;2023-06-10T07:22:45;16.40;99.90
7240;DHT22;3661;53.288;10.458;2023-06-10T07:25:18;16.60;99.90
7240;DHT22;3661;53.288;10.458;2023-06-10T07:27:51;16.60;99.90
7240;DHT22;3661;53.288;10.458;2023-06-10T07:30:23;16.70;99.90
7240;DHT22;3661;53.288;10.458;2023-06-10T07:32:57;16.80;99.90
7240;DHT22;3661;53.288;10.458;2023-06-10T07:35:29;16.80;99.90
7240;DHT22;3661;53.288;10.458;2023-06-10T07:38:10;16.80;99.90
7240;DHT22;3661;53.288;10.458;2023-06-10T07:40:44;16.90;99.90
7240;DHT22;3661;53.288;10.458;2023-06-10T07:43:16;17.00;99.90
7240;DHT22;3661;53.288;10.458;2023-06-10T07:45:48;17.10;99.90
7240;DHT22;3661;53.288;10.458;2023-06-10T07:48:21;17.10;99.90
7240;DHT22;3661;53.288;10.458;2023-06-10T07:50:58;17.20;99.90
7240;DHT22;3661;53.288;10.458;2023-06-10T07:56:56;17.40;99.90
7240;DHT22;3661;53.288;10.458;2023-06-10T07:59:29;17.50;99.90
7240;DHT22;3661;53.288;10.458;2023-06-10T08:02:02;17.50;99.90
7240;DHT22;3661;53.288;10.458;2023-06-10T08:04:53;17.60;99.90
7240;DHT22;3661;53.288;10.458;2023-06-10T08:07:47;17.70;99.90
7240;DHT22;3661;53.288;10.458;2023-06-10T08:10:19;17.80;99.90
7240;DHT22;3661;53.288;10.458;2023-06-10T08:19:53;18.20;99.90
7240;DHT22;3661;53.288;10.458;2023-06-10T08:22:25;18.30;99.90
7240;DHT22;3661;53.288;10.458;2023-06-10T08:25:03;18.40;99.90
7240;DHT22;3661;53.288;10.458;2023-06-10T08:43:44;19.50;99.90
7240;DHT22;3661;53.288;10.458;2023-06-10T08:46:17;19.60;99.90
7240;DHT22;3661;53.288;10.458;2023-06-10T08:48:53;19.80;99.90
7240;DHT22;3661;53.288;10.458;2023-06-10T08:51:27;20.00;99.90
7240;DHT22;3661;53.288;10.458;2023-06-10T08:54:02;20.10;99.90
7240;DHT22;3661;53.288;10.458;2023-06-10T08:56:35;20.30;99.90
7240;DHT22;3661;53.288;10.458;2023-06-10T08:59:12;20.50;99.90
7240;DHT22;3661;53.288;10.458;2023-06-10T09:02:01;20.60;99.90
7240;DHT22;3661;53.288;10.458;2023-06-10T09:04:53;20.80;99.90
7240;DHT22;3661;53.288;10.458;2023-06-10T09:07:30;20.90;99.90
7240;DHT22;3661;53.288;10.458;2023-06-10T09:10:10;21.10;99.90
7240;DHT22;3661;53.288;10.458;2023-06-10T09:12:43;21.20;99.90
7240;DHT22;3661;53.288;10.458;2023-06-10T09:15:28;21.40;99.90
7240;DHT22;3661;53.288;10.458;2023-06-10T09:18:16;21.60;99.90
7240;DHT22;3661;53.288;10.458;2023-06-10T09:20:54;21.80;99.90
7240;DHT22;3661;53.288;10.458;2023-06-10T09:23:30;22.00;99.90
7240;DHT22;3661;53.288;10.458;2023-06-10T09:26:09;22.20;99.90
7240;DHT22;3661;53.288;10.458;2023-06-10T09:28:46;22.30;99.90
7240;DHT22;3661;53.288;10.458;2023-06-10T09:31:21;22.50;99.90
7240;DHT22;3661;53.288;10.458;2023-06-10T09:33:56;22.60;99.90
7240;DHT22;3661;53.288;10.458;2023-06-10T09:36:37;22.80;99.90
7240;DHT22;3661;53.288;10.458;2023-06-10T09:39:15;22.90;99.90
7240;DHT22;3661;53.288;10.458;2023-06-10T09:41:48;23.10;99.90
7240;DHT22;3661;53.288;10.458;2023-06-10T09:44:21;23.20;99.90
7240;DHT22;3661;53.288;10.458;2023-06-10T09:46:59;23.40;99.90
7240;DHT22;3661;53.288;10.458;2023-06-10T09:49:31;23.50;99.90
7240;DHT22;3661;53.288;10.458;2023-06-10T09:52:06;23.60;99.90
7240;DHT22;3661;53.288;10.458;2023-06-10T09:54:39;23.70;99.90
7240;DHT22;3661;53.288;10.458;2023-06-10T09:57:11;23.90;99.90
7240;DHT22;3661;53.288;10.458;2023-06-10T09:59:53;24.10;99.90
7240;DHT22;3661;53.288;10.458;2023-06-10T10:14:34;24.80;99.90
7240;DHT22;3661;53.288;10.458;2023-06-10T10:17:10;24.90;99.90
7240;DHT22;3661;53.288;10.458;2023-06-10T10:19:46;25.00;99.90
7240;DHT22;3661;53.288;10.458;2023-06-10T10:22:25;25.20;99.90
7240;DHT22;3661;53.288;10.458;2023-06-10T10:25:02;25.30;99.90
7240;DHT22;3661;53.288;10.458;2023-06-10T10:27:51;25.40;99.90
7240;DHT22;3661;53.288;10.458;2023-06-10T10:30:26;25.50;99.90
7240;DHT22;3661;53.288;10.458;2023-06-10T10:33:06;25.70;99.90
7240;DHT22;3661;53.288;10.458;2023-06-10T10:35:44;25.80;99.90
7240;DHT22;3661;53.288;10.458;2023-06-10T10:38:20;26.00;99.90
7240;DHT22;3661;53.288;10.458;2023-06-10T10:40:53;26.10;99.90
7240;DHT22;3661;53.288;10.458;2023-06-10T10:43:30;26.20;99.90
7240;DHT22;3661;53.288;10.458;2023-06-10T10:46:12;26.30;99.90
7240;DHT22;3661;53.288;10.458;2023-06-10T10:48:54;26.50;99.90
7240;DHT22;3661;53.288;10.458;2023-06-10T10:51:34;26.60;99.40
7240;DHT22;3661;53.288;10.458;2023-06-10T10:54:20;26.60;99.00
7240;DHT22;3661;53.288;10.458;2023-06-10T10:57:17;26.70;99.10
7240;DHT22;3661;53.288;10.458;2023-06-10T10:59:55;26.90;98.90
7240;DHT22;3661;53.288;10.458;2023-06-10T11:02:40;27.00;98.70
7240;DHT22;3661;53.288;10.458;2023-06-10T11:05:15;27.10;98.30
7240;DHT22;3661;53.288;10.458;2023-06-10T11:07:54;27.10;98.10
7240;DHT22;3661;53.288;10.458;2023-06-10T11:10:31;27.20;97.60
7240;DHT22;3661;53.288;10.458;2023-06-10T11:13:08;27.30;97.60
7240;DHT22;3661;53.288;10.458;2023-06-10T11:15:43;27.40;97.50
7240;DHT22;3661;53.288;10.458;2023-06-10T11:18:23;27.40;97.30
7240;DHT22;3661;53.288;10.458;2023-06-10T11:21:00;27.50;96.90
7240;DHT22;3661;53.288;10.458;2023-06-10T11:23:41;27.60;96.50
7240;DHT22;3661;53.288;10.458;2023-06-10T11:26:19;27.60;96.60
7240;DHT22;3661;53.288;10.458;2023-06-10T11:29:14;27.70;96.60
7240;DHT22;3661;53.288;10.458;2023-06-10T11:31:50;27.80;96.30
7240;DHT22;3661;53.288;10.458;2023-06-10T11:34:24;27.90;95.60
7240;DHT22;3661;53.288;10.458;2023-06-10T11:36:57;27.90;95.40
7240;DHT22;3661;53.288;10.458;2023-06-10T11:39:30;28.00;95.30
7240;DHT22;3661;53.288;10.458;2023-06-10T11:42:05;28.00;95.20
7240;DHT22;3661;53.288;10.458;2023-06-10T11:44:38;28.00;95.00
7240;DHT22;3661;53.288;10.458;2023-06-10T11:47:10;28.10;94.70
7240;DHT22;3661;53.288;10.458;2023-06-10T11:49:44;28.10;94.50
7240;DHT22;3661;53.288;10.458;2023-06-10T11:52:16;28.20;94.50
7240;DHT22;3661;53.288;10.458;2023-06-10T11:54:55;28.20;94.30
7240;DHT22;3661;53.288;10.458;2023-06-10T11:57:27;28.30;94.10
7240;DHT22;3661;53.288;10.458;2023-06-10T12:00:04;28.30;94.20
7240;DHT22;3661;53.288;10.458;2023-06-10T12:02:36;28.40;94.20
7240;DHT22;3661;53.288;10.458;2023-06-10T12:05:14;28.40;93.80
7240;DHT22;3661;53.288;10.458;2023-06-10T12:07:49;28.50;93.80
7240;DHT22;3661;53.288;10.458;2023-06-10T12:10:21;28.60;93.70
7240;DHT22;3661;53.288;10.458;2023-06-10T12:12:53;28.60;93.40
7240;DHT22;3661;53.288;10.458;2023-06-10T12:15:28;28.70;93.30
7240;DHT22;3661;53.288;10.458;2023-06-10T12:18:05;28.80;93.30
7240;DHT22;3661;53.288;10.458;2023-06-10T12:20:41;28.80;93.20
7240;DHT22;3661;53.288;10.458;2023-06-10T12:23:13;28.90;93.30
7240;DHT22;3661;53.288;10.458;2023-06-10T12:25:55;29.00;93.10
7240;DHT22;3661;53.288;10.458;2023-06-10T12:28:27;29.10;92.80
7240;DHT22;3661;53.288;10.458;2023-06-10T12:31:17;29.20;92.80
7240;DHT22;3661;53.288;10.458;2023-06-10T12:33:49;29.20;92.00
7240;DHT22;3661;53.288;10.458;2023-06-10T12:36:25;29.30;92.00
7240;DHT22;3661;53.288;10.458;2023-06-10T12:39:03;29.40;92.10
7240;DHT22;3661;53.288;10.458;2023-06-10T12:41:37;29.50;92.10
7240;DHT22;3661;53.288;10.458;2023-06-10T12:44:11;29.60;91.80
7240;DHT22;3661;53.288;10.458;2023-06-10T12:46:46;29.60;91.60
7240;DHT22;3661;53.288;10.458;2023-06-10T12:52:53;29.70;91.10
7240;DHT22;3661;53.288;10.458;2023-06-10T12:58:06;29.80;90.50
7240;DHT22;3661;53.288;10.458;2023-06-10T13:00:51;29.90;90.20
7240;DHT22;3661;53.288;10.458;2023-06-10T13:10:17;29.90;89.20
7240;DHT22;3661;53.288;10.458;2023-06-10T13:23:30;30.30;87.70
7240;DHT22;3661;53.288;10.458;2023-06-10T13:26:04;30.30;87.60
7240;DHT22;3661;53.288;10.458;2023-06-10T13:28:36;30.40;86.90
7240;DHT22;3661;53.288;10.458;2023-06-10T13:31:09;30.40;86.20
7240;DHT22;3661;53.288;10.458;2023-06-10T13:33:41;30.40;86.00
7240;DHT22;3661;53.288;10.458;2023-06-10T13:36:14;30.50;86.60
7240;DHT22;3661;53.288;10.458;2023-06-10T13:38:46;30.50;86.40
7240;DHT22;3661;53.288;10.458;2023-06-10T13:41:21;30.60;85.90
7240;DHT22;3661;53.288;10.458;2023-06-10T13:43:53;30.60;85.30
7240;DHT22;3661;53.288;10.458;2023-06-10T13:46:25;30.50;85.20
7240;DHT22;3661;53.288;10.458;2023-06-10T13:48:58;30.60;85.20
7240;DHT22;3661;53.288;10.458;2023-06-10T13:51:30;30.60;84.70
7240;DHT22;3661;53.288;10.458;2023-06-10T13:54:02;30.60;84.70
7240;DHT22;3661;53.288;10.458;2023-06-10T13:56:37;30.70;84.80
7240;DHT22;3661;53.288;10.458;2023-06-10T13:59:10;30.70;84.50
7240;DHT22;3661;53.288;10.458;2023-06-10T14:01:43;30.80;84.40
7240;DHT22;3661;53.288;10.458;2023-06-10T14:04:16;30.80;84.00
7240;DHT22;3661;53.288;10.458;2023-06-10T14:06:48;30.80;84.30
7240;DHT22;3661;53.288;10.458;2023-06-10T14:09:20;30.90;83.80
7240;DHT22;3661;53.288;10.458;2023-06-10T14:11:54;30.90;83.50
7240;DHT22;3661;53.288;10.458;2023-06-10T14:14:26;30.90;83.50
7240;DHT22;3661;53.288;10.458;2023-06-10T14:16:58;30.90;83.00
7240;DHT22;3661;53.288;10.458;2023-06-10T14:19:30;30.90;82.90
7240;DHT22;3661;53.288;10.458;2023-06-10T14:22:03;30.90;83.30
7240;DHT22;3661;53.288;10.458;2023-06-10T14:24:35;30.90;82.90
7240;DHT22;3661;53.288;10.458;2023-06-10T14:27:09;31.00;82.10
7240;DHT22;3661;53.288;10.458;2023-06-10T14:29:41;31.00;81.50
7240;DHT22;3661;53.288;10.458;2023-06-10T14:32:13;31.10;81.10
7240;DHT22;3661;53.288;10.458;2023-06-10T14:35:37;31.10;80.90
7240;DHT22;3661;53.288;10.458;2023-06-10T14:38:03;31.10;81.00
7240;DHT22;3661;53.288;10.458;2023-06-10T14:40:35;31.10;80.70
7240;DHT22;3661;53.288;10.458;2023-06-10T14:43:10;31.10;80.50
7240;DHT22;3661;53.288;10.458;2023-06-10T14:45:48;31.20;80.60
7240;DHT22;3661;53.288;10.458;2023-06-10T14:48:21;31.20;80.30
7240;DHT22;3661;53.288;10.458;2023-06-10T14:50:55;31.20;80.20
7240;DHT22;3661;53.288;10.458;2023-06-10T14:53:39;31.20;80.20
7240;DHT22;3661;53.288;10.458;2023-06-10T15:02:40;31.30;79.10
7240;DHT22;3661;53.288;10.458;2023-06-10T15:05:12;31.40;79.20
7240;DHT22;3661;53.288;10.458;2023-06-10T15:07:47;31.30;78.40
7240;DHT22;3661;53.288;10.458;2023-06-10T15:10:31;31.20;77.50
7240;DHT22;3661;53.288;10.458;2023-06-10T15:13:19;31.20;77.40
7240;DHT22;3661;53.288;10.458;2023-06-10T15:15:51;31.20;76.30
7240;DHT22;3661;53.288;10.458;2023-06-10T15:18:25;31.20;77.10
7240;DHT22;3661;53.288;10.458;2023-06-10T15:21:00;31.30;76.60
7240;DHT22;3661;53.288;10.458;2023-06-10T15:23:32;31.30;79.00
7240;DHT22;3661;53.288;10.458;2023-06-10T15:26:05;31.30;82.30
7240;DHT22;3661;53.288;10.458;2023-06-10T15:28:37;31.30;84.40
7240;DHT22;3661;53.288;10.458;2023-06-10T15:31:09;31.20;85.20
7240;DHT22;3661;53.288;10.458;2023-06-10T15:33:43;31.30;86.20
7240;DHT22;3661;53.288;10.458;2023-06-10T15:36:15;31.20;86.70
7240;DHT22;3661;53.288;10.458;2023-06-10T15:38:47;31.10;86.20
7240;DHT22;3661;53.288;10.458;2023-06-10T15:41:19;31.10;86.20
7240;DHT22;3661;53.288;10.458;2023-06-10T15:43:53;31.00;86.70
7240;DHT22;3661;53.288;10.458;2023-06-10T15:46:26;31.00;87.10
7240;DHT22;3661;53.288;10.458;2023-06-10T15:49:02;30.90;87.30
7240;DHT22;3661;53.288;10.458;2023-06-10T15:51:35;30.90;87.70
7240;DHT22;3661;53.288;10.458;2023-06-10T15:54:09;30.90;88.20
7240;DHT22;3661;53.288;10.458;2023-06-10T15:56:41;30.80;88.80
7240;DHT22;3661;53.288;10.458;2023-06-10T15:59:15;30.80;89.20
7240;DHT22;3661;53.288;10.458;2023-06-10T16:01:47;30.70;89.30
7240;DHT22;3661;53.288;10.458;2023-06-10T16:04:23;30.60;89.10
7240;DHT22;3661;53.288;10.458;2023-06-10T16:06:56;30.50;88.90
7240;DHT22;3661;53.288;10.458;2023-06-10T16:09:31;30.50;89.10
7240;DHT22;3661;53.288;10.458;2023-06-10T16:12:04;30.50;89.00
7240;DHT22;3661;53.288;10.458;2023-06-10T16:43:27;30.60;89.70
7240;DHT22;3661;53.288;10.458;2023-06-10T16:46:00;30.60;89.80
7240;DHT22;3661;53.288;10.458;2023-06-10T16:48:32;30.70;89.80
7240;DHT22;3661;53.288;10.458;2023-06-10T16:51:05;30.70;88.90
7240;DHT22;3661;53.288;10.458;2023-06-10T16:53:37;30.70;89.30
7240;DHT22;3661;53.288;10.458;2023-06-10T16:56:09;30.70;86.80
7240;DHT22;3661;53.288;10.458;2023-06-10T16:58:43;30.60;86.30
7240;DHT22;3661;53.288;10.458;2023-06-10T17:01:15;30.60;85.10
7240;DHT22;3661;53.288;10.458;2023-06-10T17:03:48;30.50;85.40
7240;DHT22;3661;53.288;10.458;2023-06-10T17:06:20;30.50;85.30
7240;DHT22;3661;53.288;10.458;2023-06-10T17:08:52;30.40;85.50
7240;DHT22;3661;53.288;10.458;2023-06-10T17:11:24;30.30;85.00
7240;DHT22;3661;53.288;10.458;2023-06-10T17:13:58;30.20;85.20
7240;DHT22;3661;53.288;10.458;2023-06-10T17:16:30;30.20;85.50
7240;DHT22;3661;53.288;10.458;2023-06-10T17:19:02;30.10;86.00
7240;DHT22;3661;53.288;10.458;2023-06-10T17:21:34;30.00;86.60
7240;DHT22;3661;53.288;10.458;2023-06-10T17:24:07;29.90;87.20
7240;DHT22;3661;53.288;10.458;2023-06-10T17:30:09;29.70;88.00
7240;DHT22;3661;53.288;10.458;2023-06-10T17:32:50;29.60;88.40
7240;DHT22;3661;53.288;10.458;2023-06-10T17:35:28;29.50;88.70
7240;DHT22;3661;53.288;10.458;2023-06-10T17:38:03;29.40;88.90
7240;DHT22;3661;53.288;10.458;2023-06-10T17:51:19;29.00;89.10
7240;DHT22;3661;53.288;10.458;2023-06-10T17:59:10;28.80;88.00
7240;DHT22;3661;53.288;10.458;2023-06-10T18:01:43;28.70;87.80
7240;DHT22;3661;53.288;10.458;2023-06-10T18:04:15;28.70;87.90
7240;DHT22;3661;53.288;10.458;2023-06-10T18:06:49;28.60;87.50
7240;DHT22;3661;53.288;10.458;2023-06-10T18:09:22;28.50;87.70
7240;DHT22;3661;53.288;10.458;2023-06-10T18:11:56;28.40;87.90
7240;DHT22;3661;53.288;10.458;2023-06-10T18:14:28;28.30;88.00
7240;DHT22;3661;53.288;10.458;2023-06-10T18:17:01;28.20;88.20
7240;DHT22;3661;53.288;10.458;2023-06-10T18:19:33;28.20;88.50
7240;DHT22;3661;53.288;10.458;2023-06-10T18:22:07;28.10;88.60
7240;DHT22;3661;53.288;10.458;2023-06-10T18:24:39;28.10;88.80
7240;DHT22;3661;53.288;10.458;2023-06-10T18:27:12;28.00;88.90
7240;DHT22;3661;53.288;10.458;2023-06-10T18:29:52;27.90;89.10
7240;DHT22;3661;53.288;10.458;2023-06-10T18:32:24;27.80;89.20
7240;DHT22;3661;53.288;10.458;2023-06-10T18:34:56;27.70;89.30
7240;DHT22;3661;53.288;10.458;2023-06-10T18:37:34;27.70;89.50
7240;DHT22;3661;53.288;10.458;2023-06-10T18:40:20;27.60;89.50
7240;DHT22;3661;53.288;10.458;2023-06-10T18:42:57;27.60;89.70
7240;DHT22;3661;53.288;10.458;2023-06-10T18:45:40;27.40;89.60
7240;DHT22;3661;53.288;10.458;2023-06-10T18:48:14;27.40;89.80
7240;DHT22;3661;53.288;10.458;2023-06-10T18:50:47;27.30;89.80
7240;DHT22;3661;53.288;10.458;2023-06-10T18:53:25;27.20;89.70
7240;DHT22;3661;53.288;10.458;2023-06-10T18:56:01;27.20;89.90
7240;DHT22;3661;53.288;10.458;2023-06-10T18:58:34;27.10;89.90
7240;DHT22;3661;53.288;10.458;2023-06-10T19:01:09;27.10;89.70